Terminal Aerodrome Forecast
Issued by NWS Huntsville, AL

Current Version | Previous Version | Text Only | Print | Product List | Glossary On
Versions: 1 2 3 4 5 6 7 8 9 10 11 12 13 14 15 16 17 18 19 20 21 22 23 24 25 26 27 28 29
000
FTUS44 KHUN 290531
TAFHSV
TAF
KHSV 290531Z 2906/3006 04005KT P6SM SKC
     FM291500 15008KT P6SM FEW050
     FM292000 18011KT P6SM BKN040
     FM300500 22011KT P6SM VCSH OVC040=

USA.gov is the U.S. government's official web portal to all federal, state and local government web resources and services.